sensor_id;sensor_type;location;lat;lon;timestamp;P1;durP1;ratioP1;P2;durP2;ratioP2
59788;SDS011;47353;51.614;5.530;2023-08-06T00:01:42;5.25;;;4.47;;
59788;SDS011;47353;51.614;5.530;2023-08-06T00:04:07;6.15;;;4.55;;
59788;SDS011;47353;51.614;5.530;2023-08-06T00:06:33;5.68;;;4.05;;
59788;SDS011;47353;51.614;5.530;2023-08-06T00:08:58;6.53;;;4.40;;
59788;SDS011;47353;51.614;5.530;2023-08-06T00:11:23;6.05;;;4.40;;
59788;SDS011;47353;51.614;5.530;2023-08-06T00:13:49;5.53;;;4.10;;
59788;SDS011;47353;51.614;5.530;2023-08-06T00:16:14;5.00;;;4.50;;
59788;SDS011;47353;51.614;5.530;2023-08-06T00:18:40;5.88;;;4.00;;
59788;SDS011;47353;51.614;5.530;2023-08-06T00:21:05;6.53;;;4.30;;
59788;SDS011;47353;51.614;5.530;2023-08-06T00:23:31;4.88;;;4.22;;
59788;SDS011;47353;51.614;5.530;2023-08-06T00:25:57;5.80;;;4.03;;
59788;SDS011;47353;51.614;5.530;2023-08-06T00:28:22;5.03;;;4.53;;
59788;SDS011;47353;51.614;5.530;2023-08-06T00:30:54;5.70;;;3.97;;
59788;SDS011;47353;51.614;5.530;2023-08-06T00:33:21;5.90;;;3.97;;
59788;SDS011;47353;51.614;5.530;2023-08-06T00:35:47;6.68;;;3.90;;
59788;SDS011;47353;51.614;5.530;2023-08-06T00:38:12;5.82;;;4.10;;
59788;SDS011;47353;51.614;5.530;2023-08-06T00:40:38;5.13;;;4.15;;
59788;SDS011;47353;51.614;5.530;2023-08-06T00:43:03;6.32;;;4.15;;
59788;SDS011;47353;51.614;5.530;2023-08-06T00:45:29;4.75;;;4.05;;
59788;SDS011;47353;51.614;5.530;2023-08-06T00:47:55;8.55;;;4.70;;
59788;SDS011;47353;51.614;5.530;2023-08-06T00:50:21;5.60;;;4.18;;
59788;SDS011;47353;51.614;5.530;2023-08-06T00:52:48;5.97;;;3.95;;
59788;SDS011;47353;51.614;5.530;2023-08-06T00:55:14;8.38;;;4.60;;
59788;SDS011;47353;51.614;5.530;2023-08-06T00:57:40;6.10;;;4.30;;
59788;SDS011;47353;51.614;5.530;2023-08-06T01:00:06;6.28;;;4.40;;
59788;SDS011;47353;51.614;5.530;2023-08-06T01:02:32;5.40;;;4.00;;
59788;SDS011;47353;51.614;5.530;2023-08-06T01:04:58;5.88;;;4.30;;
59788;SDS011;47353;51.614;5.530;2023-08-06T01:13:18;6.20;;;4.68;;
59788;SDS011;47353;51.614;5.530;2023-08-06T01:15:49;7.60;;;4.50;;
59788;SDS011;47353;51.614;5.530;2023-08-06T01:18:19;10.43;;;4.85;;
59788;SDS011;47353;51.614;5.530;2023-08-06T01:20:45;5.68;;;4.18;;
59788;SDS011;47353;51.614;5.530;2023-08-06T01:23:10;5.18;;;4.40;;
59788;SDS011;47353;51.614;5.530;2023-08-06T01:25:39;5.15;;;4.40;;
59788;SDS011;47353;51.614;5.530;2023-08-06T01:28:14;8.57;;;4.60;;
59788;SDS011;47353;51.614;5.530;2023-08-06T01:30:52;5.57;;;3.95;;
59788;SDS011;47353;51.614;5.530;2023-08-06T01:33:21;5.13;;;4.13;;
59788;SDS011;47353;51.614;5.530;2023-08-06T01:35:48;4.80;;;3.85;;
59788;SDS011;47353;51.614;5.530;2023-08-06T01:38:15;7.30;;;4.45;;
59788;SDS011;47353;51.614;5.530;2023-08-06T01:40:41;6.82;;;4.10;;
59788;SDS011;47353;51.614;5.530;2023-08-06T01:43:06;6.90;;;4.50;;
59788;SDS011;47353;51.614;5.530;2023-08-06T01:45:32;6.15;;;4.50;;
59788;SDS011;47353;51.614;5.530;2023-08-06T01:47:57;6.75;;;4.70;;
59788;SDS011;47353;51.614;5.530;2023-08-06T01:50:23;5.97;;;4.40;;
59788;SDS011;47353;51.614;5.530;2023-08-06T01:52:48;6.47;;;4.32;;
59788;SDS011;47353;51.614;5.530;2023-08-06T01:55:13;7.20;;;4.68;;
59788;SDS011;47353;51.614;5.530;2023-08-06T01:57:39;6.60;;;4.47;;
59788;SDS011;47353;51.614;5.530;2023-08-06T02:00:04;13.02;;;5.03;;
59788;SDS011;47353;51.614;5.530;2023-08-06T02:02:30;6.25;;;4.53;;
59788;SDS011;47353;51.614;5.530;2023-08-06T02:04:55;6.53;;;4.40;;
59788;SDS011;47353;51.614;5.530;2023-08-06T02:07:23;6.40;;;4.50;;
59788;SDS011;47353;51.614;5.530;2023-08-06T02:09:48;6.03;;;4.30;;
59788;SDS011;47353;51.614;5.530;2023-08-06T02:12:14;6.45;;;4.60;;
59788;SDS011;47353;51.614;5.530;2023-08-06T02:14:39;5.63;;;4.75;;
59788;SDS011;47353;51.614;5.530;2023-08-06T02:17:04;7.18;;;4.80;;
59788;SDS011;47353;51.614;5.530;2023-08-06T02:19:30;8.00;;;4.85;;
59788;SDS011;47353;51.614;5.530;2023-08-06T02:21:55;6.47;;;5.22;;
59788;SDS011;47353;51.614;5.530;2023-08-06T02:24:21;7.18;;;4.35;;
59788;SDS011;47353;51.614;5.530;2023-08-06T02:26:46;6.72;;;4.60;;
59788;SDS011;47353;51.614;5.530;2023-08-06T02:29:14;7.03;;;4.90;;
59788;SDS011;47353;51.614;5.530;2023-08-06T02:31:39;7.80;;;4.22;;
59788;SDS011;47353;51.614;5.530;2023-08-06T02:34:05;6.72;;;4.50;;
59788;SDS011;47353;51.614;5.530;2023-08-06T02:36:30;7.60;;;5.00;;
59788;SDS011;47353;51.614;5.530;2023-08-06T02:38:56;7.60;;;4.82;;
59788;SDS011;47353;51.614;5.530;2023-08-06T02:41:21;6.20;;;4.80;;
59788;SDS011;47353;51.614;5.530;2023-08-06T02:43:47;9.88;;;4.90;;
59788;SDS011;47353;51.614;5.530;2023-08-06T02:46:12;7.85;;;4.93;;
59788;SDS011;47353;51.614;5.530;2023-08-06T02:48:40;9.85;;;4.80;;
59788;SDS011;47353;51.614;5.530;2023-08-06T02:51:06;9.70;;;4.65;;
59788;SDS011;47353;51.614;5.530;2023-08-06T02:53:31;6.65;;;4.55;;
59788;SDS011;47353;51.614;5.530;2023-08-06T02:55:56;5.72;;;4.47;;
59788;SDS011;47353;51.614;5.530;2023-08-06T02:58:22;5.15;;;4.38;;
59788;SDS011;47353;51.614;5.530;2023-08-06T03:03:25;8.93;;;4.82;;
59788;SDS011;47353;51.614;5.530;2023-08-06T03:05:52;6.82;;;4.28;;
59788;SDS011;47353;51.614;5.530;2023-08-06T03:08:18;8.85;;;4.60;;
59788;SDS011;47353;51.614;5.530;2023-08-06T03:10:47;6.40;;;4.43;;
59788;SDS011;47353;51.614;5.530;2023-08-06T03:13:13;8.63;;;4.57;;
59788;SDS011;47353;51.614;5.530;2023-08-06T03:15:38;8.45;;;4.32;;
59788;SDS011;47353;51.614;5.530;2023-08-06T03:18:03;8.23;;;4.78;;
59788;SDS011;47353;51.614;5.530;2023-08-06T03:20:31;7.05;;;4.72;;
59788;SDS011;47353;51.614;5.530;2023-08-06T03:22:57;7.95;;;4.85;;
59788;SDS011;47353;51.614;5.530;2023-08-06T03:25:22;7.32;;;4.65;;
59788;SDS011;47353;51.614;5.530;2023-08-06T03:27:48;5.95;;;4.72;;
59788;SDS011;47353;51.614;5.530;2023-08-06T03:30:13;7.07;;;4.70;;
59788;SDS011;47353;51.614;5.530;2023-08-06T03:32:39;8.45;;;4.68;;
59788;SDS011;47353;51.614;5.530;2023-08-06T03:35:04;5.65;;;4.47;;
59788;SDS011;47353;51.614;5.530;2023-08-06T03:37:30;6.22;;;4.88;;
59788;SDS011;47353;51.614;5.530;2023-08-06T03:39:55;6.65;;;4.70;;
59788;SDS011;47353;51.614;5.530;2023-08-06T03:42:20;10.52;;;4.80;;
59788;SDS011;47353;51.614;5.530;2023-08-06T03:44:46;8.63;;;4.70;;
59788;SDS011;47353;51.614;5.530;2023-08-06T03:47:12;7.60;;;5.07;;
59788;SDS011;47353;51.614;5.530;2023-08-06T03:49:40;7.97;;;4.63;;
59788;SDS011;47353;51.614;5.530;2023-08-06T03:52:06;6.75;;;4.47;;
59788;SDS011;47353;51.614;5.530;2023-08-06T03:54:31;6.57;;;4.43;;
59788;SDS011;47353;51.614;5.530;2023-08-06T03:56:57;7.45;;;4.35;;
59788;SDS011;47353;51.614;5.530;2023-08-06T03:59:22;7.00;;;4.50;;
59788;SDS011;47353;51.614;5.530;2023-08-06T04:01:48;8.73;;;4.63;;
59788;SDS011;47353;51.614;5.530;2023-08-06T04:04:13;5.53;;;4.32;;
59788;SDS011;47353;51.614;5.530;2023-08-06T04:06:38;6.90;;;5.05;;
59788;SDS011;47353;51.614;5.530;2023-08-06T04:09:04;8.85;;;5.03;;
59788;SDS011;47353;51.614;5.530;2023-08-06T04:11:29;7.53;;;4.25;;
59788;SDS011;47353;51.614;5.530;2023-08-06T04:13:54;9.43;;;4.63;;
59788;SDS011;47353;51.614;5.530;2023-08-06T04:16:20;8.50;;;4.18;;
59788;SDS011;47353;51.614;5.530;2023-08-06T04:18:46;6.28;;;4.10;;
59788;SDS011;47353;51.614;5.530;2023-08-06T04:21:12;6.32;;;3.90;;
59788;SDS011;47353;51.614;5.530;2023-08-06T04:23:37;6.82;;;4.10;;
59788;SDS011;47353;51.614;5.530;2023-08-06T04:26:03;7.75;;;4.28;;
59788;SDS011;47353;51.614;5.530;2023-08-06T04:28:28;9.48;;;4.63;;
59788;SDS011;47353;51.614;5.530;2023-08-06T04:30:54;9.43;;;4.43;;
59788;SDS011;47353;51.614;5.530;2023-08-06T04:33:20;5.82;;;3.75;;
59788;SDS011;47353;51.614;5.530;2023-08-06T04:35:45;9.55;;;4.50;;
59788;SDS011;47353;51.614;5.530;2023-08-06T04:38:10;7.00;;;4.00;;
59788;SDS011;47353;51.614;5.530;2023-08-06T04:40:36;9.32;;;4.63;;
59788;SDS011;47353;51.614;5.530;2023-08-06T04:43:01;8.20;;;4.30;;
59788;SDS011;47353;51.614;5.530;2023-08-06T04:45:27;5.85;;;4.35;;
59788;SDS011;47353;51.614;5.530;2023-08-06T04:47:52;5.68;;;4.50;;
59788;SDS011;47353;51.614;5.530;2023-08-06T04:50:19;6.45;;;4.72;;
59788;SDS011;47353;51.614;5.530;2023-08-06T04:52:45;6.60;;;4.70;;
59788;SDS011;47353;51.614;5.530;2023-08-06T04:55:10;8.32;;;4.70;;
59788;SDS011;47353;51.614;5.530;2023-08-06T04:57:35;7.03;;;4.45;;
59788;SDS011;47353;51.614;5.530;2023-08-06T05:00:01;6.18;;;4.35;;
59788;SDS011;47353;51.614;5.530;2023-08-06T05:02:26;7.10;;;4.60;;
59788;SDS011;47353;51.614;5.530;2023-08-06T05:04:52;7.38;;;4.55;;
59788;SDS011;47353;51.614;5.530;2023-08-06T05:07:17;7.15;;;4.60;;
59788;SDS011;47353;51.614;5.530;2023-08-06T05:09:42;9.43;;;4.68;;
59788;SDS011;47353;51.614;5.530;2023-08-06T05:12:08;8.20;;;4.85;;
59788;SDS011;47353;51.614;5.530;2023-08-06T05:14:34;6.18;;;4.75;;
59788;SDS011;47353;51.614;5.530;2023-08-06T05:16:59;6.63;;;5.10;;
59788;SDS011;47353;51.614;5.530;2023-08-06T05:19:27;10.45;;;4.53;;
59788;SDS011;47353;51.614;5.530;2023-08-06T05:21:52;7.00;;;4.50;;
59788;SDS011;47353;51.614;5.530;2023-08-06T05:24:18;9.38;;;4.95;;
59788;SDS011;47353;51.614;5.530;2023-08-06T05:26:43;9.15;;;4.90;;
59788;SDS011;47353;51.614;5.530;2023-08-06T05:29:11;9.10;;;5.47;;
59788;SDS011;47353;51.614;5.530;2023-08-06T05:31:37;7.57;;;5.43;;
59788;SDS011;47353;51.614;5.530;2023-08-06T05:34:03;6.63;;;5.13;;
59788;SDS011;47353;51.614;5.530;2023-08-06T05:36:29;8.13;;;5.30;;
59788;SDS011;47353;51.614;5.530;2023-08-06T05:38:54;7.38;;;5.30;;
59788;SDS011;47353;51.614;5.530;2023-08-06T05:41:19;7.93;;;5.13;;
59788;SDS011;47353;51.614;5.530;2023-08-06T05:43:45;6.15;;;5.20;;
59788;SDS011;47353;51.614;5.530;2023-08-06T05:46:10;9.00;;;5.78;;
59788;SDS011;47353;51.614;5.530;2023-08-06T05:48:36;6.80;;;5.40;;
59788;SDS011;47353;51.614;5.530;2023-08-06T05:51:01;6.80;;;5.07;;
59788;SDS011;47353;51.614;5.530;2023-08-06T05:53:26;8.48;;;5.70;;
59788;SDS011;47353;51.614;5.530;2023-08-06T05:55:52;9.60;;;5.57;;
59788;SDS011;47353;51.614;5.530;2023-08-06T05:58:17;8.25;;;6.18;;
59788;SDS011;47353;51.614;5.530;2023-08-06T06:00:45;9.48;;;7.72;;
59788;SDS011;47353;51.614;5.530;2023-08-06T06:03:10;10.57;;;7.68;;
59788;SDS011;47353;51.614;5.530;2023-08-06T06:05:37;9.80;;;7.72;;
59788;SDS011;47353;51.614;5.530;2023-08-06T06:08:04;9.77;;;7.82;;
59788;SDS011;47353;51.614;5.530;2023-08-06T06:10:29;10.75;;;7.90;;
59788;SDS011;47353;51.614;5.530;2023-08-06T06:12:54;9.25;;;7.50;;
59788;SDS011;47353;51.614;5.530;2023-08-06T06:15:20;11.35;;;7.72;;
59788;SDS011;47353;51.614;5.530;2023-08-06T06:17:45;11.18;;;7.60;;
59788;SDS011;47353;51.614;5.530;2023-08-06T06:20:10;8.70;;;7.18;;
59788;SDS011;47353;51.614;5.530;2023-08-06T06:22:36;11.35;;;7.53;;
59788;SDS011;47353;51.614;5.530;2023-08-06T06:25:01;9.82;;;6.95;;
59788;SDS011;47353;51.614;5.530;2023-08-06T06:27:26;8.15;;;6.93;;
59788;SDS011;47353;51.614;5.530;2023-08-06T06:29:52;8.48;;;7.47;;
59788;SDS011;47353;51.614;5.530;2023-08-06T06:32:19;10.10;;;7.15;;
59788;SDS011;47353;51.614;5.530;2023-08-06T06:34:45;12.32;;;7.38;;
59788;SDS011;47353;51.614;5.530;2023-08-06T06:37:10;8.77;;;6.70;;
59788;SDS011;47353;51.614;5.530;2023-08-06T06:39:35;7.07;;;6.38;;
59788;SDS011;47353;51.614;5.530;2023-08-06T06:42:01;7.55;;;6.65;;
59788;SDS011;47353;51.614;5.530;2023-08-06T06:44:26;8.73;;;6.80;;
59788;SDS011;47353;51.614;5.530;2023-08-06T06:46:52;8.48;;;6.65;;
59788;SDS011;47353;51.614;5.530;2023-08-06T06:49:17;10.85;;;6.03;;
59788;SDS011;47353;51.614;5.530;2023-08-06T06:51:43;8.50;;;6.15;;
59788;SDS011;47353;51.614;5.530;2023-08-06T06:54:09;7.15;;;6.28;;
59788;SDS011;47353;51.614;5.530;2023-08-06T06:56:34;9.63;;;6.72;;
59788;SDS011;47353;51.614;5.530;2023-08-06T06:59:00;8.63;;;6.35;;
59788;SDS011;47353;51.614;5.530;2023-08-06T07:01:25;8.18;;;6.85;;
59788;SDS011;47353;51.614;5.530;2023-08-06T07:03:51;7.97;;;7.18;;
59788;SDS011;47353;51.614;5.530;2023-08-06T07:06:16;10.60;;;7.78;;
59788;SDS011;47353;51.614;5.530;2023-08-06T07:08:43;11.00;;;8.07;;
59788;SDS011;47353;51.614;5.530;2023-08-06T07:11:09;9.60;;;7.50;;
59788;SDS011;47353;51.614;5.530;2023-08-06T07:13:34;9.25;;;7.82;;
59788;SDS011;47353;51.614;5.530;2023-08-06T07:16:00;12.27;;;8.30;;
59788;SDS011;47353;51.614;5.530;2023-08-06T07:18:25;9.50;;;8.02;;
59788;SDS011;47353;51.614;5.530;2023-08-06T07:20:51;11.00;;;8.93;;
59788;SDS011;47353;51.614;5.530;2023-08-06T07:23:20;12.02;;;9.63;;
59788;SDS011;47353;51.614;5.530;2023-08-06T07:25:46;11.00;;;9.45;;
59788;SDS011;47353;51.614;5.530;2023-08-06T07:28:12;13.00;;;9.75;;
59788;SDS011;47353;51.614;5.530;2023-08-06T07:30:39;10.73;;;9.45;;
59788;SDS011;47353;51.614;5.530;2023-08-06T07:33:05;12.30;;;8.60;;
59788;SDS011;47353;51.614;5.530;2023-08-06T07:35:31;10.68;;;8.00;;
59788;SDS011;47353;51.614;5.530;2023-08-06T07:37:57;10.30;;;9.13;;
59788;SDS011;47353;51.614;5.530;2023-08-06T07:40:22;12.52;;;10.15;;
59788;SDS011;47353;51.614;5.530;2023-08-06T07:42:48;11.18;;;9.30;;
59788;SDS011;47353;51.614;5.530;2023-08-06T07:45:13;11.10;;;8.30;;
59788;SDS011;47353;51.614;5.530;2023-08-06T07:47:39;10.30;;;5.75;;
59788;SDS011;47353;51.614;5.530;2023-08-06T07:50:04;4.70;;;2.63;;
59788;SDS011;47353;51.614;5.530;2023-08-06T07:52:30;3.42;;;1.80;;
59788;SDS011;47353;51.614;5.530;2023-08-06T07:54:55;2.90;;;1.20;;
59788;SDS011;47353;51.614;5.530;2023-08-06T07:57:21;1.02;;;1.00;;
59788;SDS011;47353;51.614;5.530;2023-08-06T07:59:46;3.92;;;1.60;;
59788;SDS011;47353;51.614;5.530;2023-08-06T08:02:12;1.63;;;1.30;;
59788;SDS011;47353;51.614;5.530;2023-08-06T08:04:37;8.15;;;2.55;;
59788;SDS011;47353;51.614;5.530;2023-08-06T08:07:02;8.88;;;2.85;;
59788;SDS011;47353;51.614;5.530;2023-08-06T08:09:28;5.03;;;2.53;;
59788;SDS011;47353;51.614;5.530;2023-08-06T08:11:53;3.53;;;2.90;;
59788;SDS011;47353;51.614;5.530;2023-08-06T08:14:19;5.97;;;3.33;;
59788;SDS011;47353;51.614;5.530;2023-08-06T08:16:44;5.07;;;3.70;;
59788;SDS011;47353;51.614;5.530;2023-08-06T08:19:09;4.20;;;3.80;;
59788;SDS011;47353;51.614;5.530;2023-08-06T08:21:35;4.55;;;4.13;;
59788;SDS011;47353;51.614;5.530;2023-08-06T08:24:00;6.82;;;4.60;;
59788;SDS011;47353;51.614;5.530;2023-08-06T08:26:26;5.82;;;4.55;;
59788;SDS011;47353;51.614;5.530;2023-08-06T08:28:52;6.20;;;4.80;;
59788;SDS011;47353;51.614;5.530;2023-08-06T08:31:18;7.70;;;5.00;;
59788;SDS011;47353;51.614;5.530;2023-08-06T08:33:44;9.63;;;5.60;;
59788;SDS011;47353;51.614;5.530;2023-08-06T08:36:09;7.55;;;4.90;;
59788;SDS011;47353;51.614;5.530;2023-08-06T08:38:35;5.82;;;4.15;;
59788;SDS011;47353;51.614;5.530;2023-08-06T08:41:01;9.15;;;4.60;;
59788;SDS011;47353;51.614;5.530;2023-08-06T08:43:27;6.88;;;4.00;;
59788;SDS011;47353;51.614;5.530;2023-08-06T08:45:53;6.20;;;4.20;;
59788;SDS011;47353;51.614;5.530;2023-08-06T08:48:25;5.38;;;3.80;;
59788;SDS011;47353;51.614;5.530;2023-08-06T08:50:52;5.28;;;3.28;;
59788;SDS011;47353;51.614;5.530;2023-08-06T08:53:17;5.20;;;2.95;;
59788;SDS011;47353;51.614;5.530;2023-08-06T08:55:47;8.02;;;3.30;;
59788;SDS011;47353;51.614;5.530;2023-08-06T08:58:14;8.25;;;4.05;;
59788;SDS011;47353;51.614;5.530;2023-08-06T09:00:41;5.07;;;3.40;;
59788;SDS011;47353;51.614;5.530;2023-08-06T09:03:07;4.38;;;3.00;;
59788;SDS011;47353;51.614;5.530;2023-08-06T09:05:33;6.22;;;3.47;;
59788;SDS011;47353;51.614;5.530;2023-08-06T09:08:03;4.75;;;3.03;;
59788;SDS011;47353;51.614;5.530;2023-08-06T09:10:29;4.28;;;2.45;;
59788;SDS011;47353;51.614;5.530;2023-08-06T09:12:56;3.53;;;2.78;;
59788;SDS011;47353;51.614;5.530;2023-08-06T09:15:26;4.07;;;2.75;;
59788;SDS011;47353;51.614;5.530;2023-08-06T09:17:52;7.50;;;3.20;;
59788;SDS011;47353;51.614;5.530;2023-08-06T09:20:19;8.23;;;3.30;;
59788;SDS011;47353;51.614;5.530;2023-08-06T09:22:44;4.93;;;2.78;;
59788;SDS011;47353;51.614;5.530;2023-08-06T09:25:10;3.97;;;2.50;;
59788;SDS011;47353;51.614;5.530;2023-08-06T09:27:38;5.20;;;2.38;;
59788;SDS011;47353;51.614;5.530;2023-08-06T09:30:05;6.18;;;2.90;;
59788;SDS011;47353;51.614;5.530;2023-08-06T09:32:44;6.80;;;2.30;;
59788;SDS011;47353;51.614;5.530;2023-08-06T09:35:17;4.75;;;2.60;;
59788;SDS011;47353;51.614;5.530;2023-08-06T09:37:42;7.40;;;2.60;;
59788;SDS011;47353;51.614;5.530;2023-08-06T09:42:56;3.20;;;2.47;;
59788;SDS011;47353;51.614;5.530;2023-08-06T09:45:23;4.50;;;2.45;;
59788;SDS011;47353;51.614;5.530;2023-08-06T09:47:56;4.60;;;2.53;;
59788;SDS011;47353;51.614;5.530;2023-08-06T09:50:22;4.88;;;2.75;;
59788;SDS011;47353;51.614;5.530;2023-08-06T09:52:53;5.65;;;2.40;;
59788;SDS011;47353;51.614;5.530;2023-08-06T09:55:19;6.38;;;2.63;;
59788;SDS011;47353;51.614;5.530;2023-08-06T09:57:46;8.68;;;3.00;;
59788;SDS011;47353;51.614;5.530;2023-08-06T10:00:12;9.85;;;2.53;;
59788;SDS011;47353;51.614;5.530;2023-08-06T10:02:38;6.25;;;2.63;;
59788;SDS011;47353;51.614;5.530;2023-08-06T10:05:05;4.55;;;2.70;;
59788;SDS011;47353;51.614;5.530;2023-08-06T10:07:33;6.70;;;2.92;;
59788;SDS011;47353;51.614;5.530;2023-08-06T10:09:59;5.93;;;2.88;;
59788;SDS011;47353;51.614;5.530;2023-08-06T10:12:25;5.50;;;3.00;;
59788;SDS011;47353;51.614;5.530;2023-08-06T10:14:53;9.18;;;3.67;;
59788;SDS011;47353;51.614;5.530;2023-08-06T10:17:21;7.78;;;3.13;;
59788;SDS011;47353;51.614;5.530;2023-08-06T10:19:48;9.23;;;2.92;;
59788;SDS011;47353;51.614;5.530;2023-08-06T10:22:15;7.63;;;3.47;;
59788;SDS011;47353;51.614;5.530;2023-08-06T10:25:01;9.82;;;3.33;;
59788;SDS011;47353;51.614;5.530;2023-08-06T10:27:31;5.50;;;3.05;;
59788;SDS011;47353;51.614;5.530;2023-08-06T10:33:01;5.20;;;3.00;;
59788;SDS011;47353;51.614;5.530;2023-08-06T10:35:28;5.72;;;3.03;;
59788;SDS011;47353;51.614;5.530;2023-08-06T10:38:11;6.32;;;3.13;;
59788;SDS011;47353;51.614;5.530;2023-08-06T10:40:41;7.55;;;3.30;;
59788;SDS011;47353;51.614;5.530;2023-08-06T10:45:52;7.07;;;3.13;;
59788;SDS011;47353;51.614;5.530;2023-08-06T10:51:02;8.70;;;3.83;;
59788;SDS011;47353;51.614;5.530;2023-08-06T10:53:28;7.05;;;3.05;;
59788;SDS011;47353;51.614;5.530;2023-08-06T10:55:54;6.93;;;3.70;;
59788;SDS011;47353;51.614;5.530;2023-08-06T10:58:19;7.15;;;3.22;;
59788;SDS011;47353;51.614;5.530;2023-08-06T11:00:48;6.70;;;3.35;;
59788;SDS011;47353;51.614;5.530;2023-08-06T11:03:14;7.20;;;3.50;;
59788;SDS011;47353;51.614;5.530;2023-08-06T11:05:40;7.03;;;3.42;;
59788;SDS011;47353;51.614;5.530;2023-08-06T11:08:05;3.85;;;2.80;;
59788;SDS011;47353;51.614;5.530;2023-08-06T11:10:32;6.40;;;3.20;;
59788;SDS011;47353;51.614;5.530;2023-08-06T11:13:02;7.15;;;3.90;;
59788;SDS011;47353;51.614;5.530;2023-08-06T11:15:29;6.45;;;3.20;;
59788;SDS011;47353;51.614;5.530;2023-08-06T11:17:55;7.60;;;4.30;;
59788;SDS011;47353;51.614;5.530;2023-08-06T11:20:20;4.97;;;2.80;;
59788;SDS011;47353;51.614;5.530;2023-08-06T11:22:47;6.18;;;2.90;;
59788;SDS011;47353;51.614;5.530;2023-08-06T11:25:12;4.82;;;2.60;;
59788;SDS011;47353;51.614;5.530;2023-08-06T11:27:38;6.55;;;3.45;;
59788;SDS011;47353;51.614;5.530;2023-08-06T11:30:04;4.80;;;2.63;;
59788;SDS011;47353;51.614;5.530;2023-08-06T11:32:30;5.78;;;2.90;;
59788;SDS011;47353;51.614;5.530;2023-08-06T11:34:55;5.82;;;3.15;;
59788;SDS011;47353;51.614;5.530;2023-08-06T11:37:21;4.95;;;2.83;;
59788;SDS011;47353;51.614;5.530;2023-08-06T11:39:50;7.53;;;3.53;;
59788;SDS011;47353;51.614;5.530;2023-08-06T11:42:16;5.95;;;3.28;;
59788;SDS011;47353;51.614;5.530;2023-08-06T11:44:42;5.95;;;3.75;;
59788;SDS011;47353;51.614;5.530;2023-08-06T11:47:14;7.18;;;2.70;;
59788;SDS011;47353;51.614;5.530;2023-08-06T11:49:45;26.73;;;13.50;;
59788;SDS011;47353;51.614;5.530;2023-08-06T11:52:21;9.32;;;3.97;;
59788;SDS011;47353;51.614;5.530;2023-08-06T11:55:07;6.80;;;3.17;;
59788;SDS011;47353;51.614;5.530;2023-08-06T11:57:37;9.68;;;5.57;;
59788;SDS011;47353;51.614;5.530;2023-08-06T12:00:05;11.90;;;3.90;;
59788;SDS011;47353;51.614;5.530;2023-08-06T12:02:33;7.88;;;3.80;;
59788;SDS011;47353;51.614;5.530;2023-08-06T12:07:32;11.63;;;6.50;;
59788;SDS011;47353;51.614;5.530;2023-08-06T12:10:01;9.10;;;4.57;;
59788;SDS011;47353;51.614;5.530;2023-08-06T12:12:27;6.18;;;3.00;;
59788;SDS011;47353;51.614;5.530;2023-08-06T12:14:52;6.82;;;3.40;;
59788;SDS011;47353;51.614;5.530;2023-08-06T12:17:19;5.78;;;3.85;;
59788;SDS011;47353;51.614;5.530;2023-08-06T12:19:44;8.65;;;5.45;;
59788;SDS011;47353;51.614;5.530;2023-08-06T12:22:11;6.15;;;3.35;;
59788;SDS011;47353;51.614;5.530;2023-08-06T12:24:38;10.52;;;6.07;;
59788;SDS011;47353;51.614;5.530;2023-08-06T12:27:03;6.03;;;2.90;;
59788;SDS011;47353;51.614;5.530;2023-08-06T12:29:29;5.55;;;3.00;;
59788;SDS011;47353;51.614;5.530;2023-08-06T12:31:56;9.43;;;4.15;;
59788;SDS011;47353;51.614;5.530;2023-08-06T12:34:21;5.45;;;3.15;;
59788;SDS011;47353;51.614;5.530;2023-08-06T12:36:46;7.78;;;4.18;;
59788;SDS011;47353;51.614;5.530;2023-08-06T12:39:12;6.50;;;3.08;;
59788;SDS011;47353;51.614;5.530;2023-08-06T12:41:38;6.65;;;3.40;;
59788;SDS011;47353;51.614;5.530;2023-08-06T12:44:03;7.97;;;3.22;;
59788;SDS011;47353;51.614;5.530;2023-08-06T12:46:29;8.52;;;3.10;;
59788;SDS011;47353;51.614;5.530;2023-08-06T12:48:54;4.53;;;2.80;;
59788;SDS011;47353;51.614;5.530;2023-08-06T12:51:20;10.35;;;5.18;;
59788;SDS011;47353;51.614;5.530;2023-08-06T12:53:45;5.68;;;2.92;;
59788;SDS011;47353;51.614;5.530;2023-08-06T12:56:11;8.65;;;2.50;;
59788;SDS011;47353;51.614;5.530;2023-08-06T12:58:36;6.10;;;3.10;;
59788;SDS011;47353;51.614;5.530;2023-08-06T13:01:01;4.78;;;3.03;;
59788;SDS011;47353;51.614;5.530;2023-08-06T13:03:27;5.85;;;2.45;;
59788;SDS011;47353;51.614;5.530;2023-08-06T13:05:52;6.70;;;2.28;;
59788;SDS011;47353;51.614;5.530;2023-08-06T13:08:18;8.27;;;4.28;;
59788;SDS011;47353;51.614;5.530;2023-08-06T13:10:43;7.88;;;3.85;;
59788;SDS011;47353;51.614;5.530;2023-08-06T13:13:09;6.88;;;2.75;;
59788;SDS011;47353;51.614;5.530;2023-08-06T13:15:35;4.32;;;2.17;;
59788;SDS011;47353;51.614;5.530;2023-08-06T13:18:01;5.40;;;2.50;;
59788;SDS011;47353;51.614;5.530;2023-08-06T13:20:26;3.10;;;2.33;;
59788;SDS011;47353;51.614;5.530;2023-08-06T13:22:52;5.25;;;2.30;;
59788;SDS011;47353;51.614;5.530;2023-08-06T13:25:18;4.88;;;2.58;;
59788;SDS011;47353;51.614;5.530;2023-08-06T13:27:44;4.68;;;2.50;;
59788;SDS011;47353;51.614;5.530;2023-08-06T13:30:11;6.30;;;3.47;;
59788;SDS011;47353;51.614;5.530;2023-08-06T13:32:36;6.30;;;3.25;;
59788;SDS011;47353;51.614;5.530;2023-08-06T13:35:04;5.55;;;2.60;;
59788;SDS011;47353;51.614;5.530;2023-08-06T13:37:30;6.53;;;2.40;;
59788;SDS011;47353;51.614;5.530;2023-08-06T13:39:56;2.75;;;2.08;;
59788;SDS011;47353;51.614;5.530;2023-08-06T13:42:21;5.18;;;2.53;;
59788;SDS011;47353;51.614;5.530;2023-08-06T13:44:47;3.58;;;2.03;;
59788;SDS011;47353;51.614;5.530;2023-08-06T13:47:12;5.32;;;2.22;;
59788;SDS011;47353;51.614;5.530;2023-08-06T13:49:38;3.00;;;2.00;;
59788;SDS011;47353;51.614;5.530;2023-08-06T13:52:03;4.57;;;1.98;;
59788;SDS011;47353;51.614;5.530;2023-08-06T13:54:29;4.97;;;2.25;;
59788;SDS011;47353;51.614;5.530;2023-08-06T13:56:55;3.28;;;2.20;;
59788;SDS011;47353;51.614;5.530;2023-08-06T13:59:20;3.80;;;2.08;;
59788;SDS011;47353;51.614;5.530;2023-08-06T14:01:46;3.78;;;2.30;;
59788;SDS011;47353;51.614;5.530;2023-08-06T14:04:12;5.32;;;2.40;;
59788;SDS011;47353;51.614;5.530;2023-08-06T14:06:38;4.68;;;2.40;;
59788;SDS011;47353;51.614;5.530;2023-08-06T14:09:03;6.57;;;2.92;;
59788;SDS011;47353;51.614;5.530;2023-08-06T14:11:29;6.32;;;4.13;;
59788;SDS011;47353;51.614;5.530;2023-08-06T14:13:55;4.43;;;2.70;;
59788;SDS011;47353;51.614;5.530;2023-08-06T14:16:20;7.25;;;3.10;;
59788;SDS011;47353;51.614;5.530;2023-08-06T14:18:45;5.25;;;2.78;;
59788;SDS011;47353;51.614;5.530;2023-08-06T14:21:11;4.95;;;2.50;;
59788;SDS011;47353;51.614;5.530;2023-08-06T14:23:36;5.63;;;2.75;;
59788;SDS011;47353;51.614;5.530;2023-08-06T14:26:01;4.35;;;3.10;;
59788;SDS011;47353;51.614;5.530;2023-08-06T14:28:27;4.57;;;3.03;;
59788;SDS011;47353;51.614;5.530;2023-08-06T14:30:52;4.85;;;3.30;;
59788;SDS011;47353;51.614;5.530;2023-08-06T14:33:18;4.13;;;2.53;;
59788;SDS011;47353;51.614;5.530;2023-08-06T14:35:43;6.40;;;2.90;;
59788;SDS011;47353;51.614;5.530;2023-08-06T14:38:09;5.85;;;2.75;;
59788;SDS011;47353;51.614;5.530;2023-08-06T14:40:35;4.40;;;2.78;;
59788;SDS011;47353;51.614;5.530;2023-08-06T14:43:03;4.70;;;3.28;;
59788;SDS011;47353;51.614;5.530;2023-08-06T14:45:30;5.05;;;3.30;;
59788;SDS011;47353;51.614;5.530;2023-08-06T14:47:56;7.25;;;2.75;;
59788;SDS011;47353;51.614;5.530;2023-08-06T14:50:22;8.93;;;2.22;;
59788;SDS011;47353;51.614;5.530;2023-08-06T14:52:47;5.43;;;2.30;;
59788;SDS011;47353;51.614;5.530;2023-08-06T14:55:17;5.32;;;1.73;;
59788;SDS011;47353;51.614;5.530;2023-08-06T14:57:48;6.25;;;2.13;;
59788;SDS011;47353;51.614;5.530;2023-08-06T15:00:13;5.47;;;1.98;;
59788;SDS011;47353;51.614;5.530;2023-08-06T15:02:38;4.40;;;1.60;;